PIT weather

Pittsburgh International Airport
Pittsburgh, Pennsylvania, United States

Public forecast

Using degrees Fahrenheit for public forecast. Weather courtesy of forecast.io.

Current aviation weather report (METAR) for Pittsburgh International Airport

Retrieved 2020/04/02 19:51 UTC (2 hours ago):

KPIT 021951Z 32017G24KT 10SM FEW070 14/M03 A2998 RMK AO2 PK WND 31029/1938 SLP165 T01391033

Aviation forecast (TAF) for Pittsburgh International Airport

Retrieved 2020/04/02 18:22 UTC (3 hours ago):

TAF KPIT 021720Z 0218/0324 32013G25KT P6SM FEW050 FM030100 33008KT P6SM SKC